createdAt,value
2022-12-31T00:01:51.816Z,17.90
2022-12-31T00:04:18.686Z,19.08
2022-12-31T00:06:46.289Z,22.77
2022-12-31T00:09:13.360Z,20.83
2022-12-31T00:11:40.377Z,18.58
2022-12-31T00:14:07.753Z,21.60
2022-12-31T00:16:37.870Z,17.20
2022-12-31T00:19:06.337Z,20.65
2022-12-31T00:21:34.098Z,18.00
2022-12-31T00:24:02.361Z,17.33
2022-12-31T00:26:31.827Z,17.90
2022-12-31T00:29:00.627Z,17.00
2022-12-31T00:31:27.427Z,15.48
2022-12-31T00:33:54.583Z,14.88
2022-12-31T00:36:23.888Z,14.70
2022-12-31T00:38:52.616Z,14.32
2022-12-31T00:41:21.203Z,16.25
2022-12-31T00:43:48.605Z,15.57
2022-12-31T00:46:15.956Z,15.82
2022-12-31T00:48:43.634Z,14.23
2022-12-31T00:51:13.425Z,13.35
2022-12-31T00:53:40.409Z,12.93
2022-12-31T00:56:13.318Z,13.65
2022-12-31T00:58:40.572Z,15.55
2022-12-31T01:01:16.571Z,13.77
2022-12-31T01:03:44.157Z,14.60
2022-12-31T01:06:11.217Z,13.73
2022-12-31T01:08:38.136Z,12.85
2022-12-31T01:11:22.763Z,14.07
2022-12-31T01:13:57.374Z,12.90
2022-12-31T01:16:32.649Z,12.18
2022-12-31T01:19:07.005Z,12.98
2022-12-31T01:21:36.018Z,12.35
2022-12-31T01:24:02.830Z,12.80
2022-12-31T01:26:30.132Z,12.60
2022-12-31T01:28:57.046Z,11.02
2022-12-31T01:31:24.713Z,10.85
2022-12-31T01:33:52.593Z,9.95
2022-12-31T01:36:26.279Z,9.27
2022-12-31T01:38:55.671Z,10.00
2022-12-31T01:41:33.839Z,11.32
2022-12-31T01:44:02.712Z,11.02
2022-12-31T01:46:29.631Z,11.55
2022-12-31T01:49:00.317Z,11.82
2022-12-31T01:51:31.713Z,12.75
2022-12-31T01:54:00.464Z,13.45
2022-12-31T01:56:27.450Z,11.65
2022-12-31T01:58:57.429Z,10.77
2022-12-31T02:01:31.236Z,10.32
2022-12-31T02:04:04.012Z,9.75
2022-12-31T02:06:39.512Z,10.32
2022-12-31T02:09:07.491Z,10.23
2022-12-31T02:11:37.914Z,9.85
2022-12-31T02:14:09.462Z,10.23
2022-12-31T02:16:50.805Z,10.07
2022-12-31T02:19:45.239Z,9.90
2022-12-31T02:22:43.167Z,9.63
2022-12-31T02:25:20.638Z,9.52
2022-12-31T02:28:09.011Z,8.15
2022-12-31T02:30:37.475Z,7.63
2022-12-31T02:33:25.647Z,8.40
2022-12-31T02:36:01.245Z,8.65
2022-12-31T02:38:32.754Z,8.15
2022-12-31T02:41:00.862Z,8.88
2022-12-31T02:43:28.086Z,8.32
2022-12-31T02:46:06.166Z,8.48
2022-12-31T02:49:02.435Z,8.65
2022-12-31T02:51:46.787Z,8.27
2022-12-31T02:54:32.079Z,8.00
2022-12-31T02:57:20.540Z,8.85
2022-12-31T03:00:17.799Z,8.38
2022-12-31T03:02:47.263Z,7.63
2022-12-31T03:05:15.936Z,8.77
2022-12-31T03:07:44.109Z,9.88
2022-12-31T03:10:11.025Z,10.20
2022-12-31T03:12:46.827Z,9.85
2022-12-31T03:15:22.627Z,10.05
2022-12-31T03:18:09.712Z,10.30
2022-12-31T03:21:00.851Z,10.40
2022-12-31T03:23:27.647Z,9.55
2022-12-31T03:25:56.513Z,8.85
2022-12-31T03:28:26.509Z,9.75
2022-12-31T03:30:59.609Z,10.18
2022-12-31T03:33:31.924Z,9.95
2022-12-31T03:35:58.772Z,11.48
2022-12-31T03:38:25.660Z,13.30
2022-12-31T03:40:53.339Z,13.77
2022-12-31T03:43:20.686Z,14.02
2022-12-31T03:45:52.489Z,13.23
2022-12-31T03:48:21.070Z,13.38
2022-12-31T03:50:48.215Z,13.70
2022-12-31T03:53:15.539Z,12.40
2022-12-31T03:55:42.414Z,12.63
2022-12-31T03:58:09.354Z,13.23
2022-12-31T04:00:36.483Z,13.38
2022-12-31T04:03:03.344Z,12.77
2022-12-31T04:05:30.213Z,12.30
2022-12-31T04:07:57.038Z,12.25
2022-12-31T04:10:23.937Z,15.02
2022-12-31T04:12:51.082Z,12.85
2022-12-31T04:15:20.611Z,12.23
2022-12-31T04:17:48.561Z,12.68
2022-12-31T04:20:16.466Z,12.10
2022-12-31T04:22:44.379Z,12.90
2022-12-31T04:25:11.606Z,15.20
2022-12-31T04:27:43.897Z,13.45
2022-12-31T04:30:12.376Z,16.30
2022-12-31T04:32:39.434Z,15.35
2022-12-31T04:35:07.536Z,13.07
2022-12-31T04:37:34.761Z,12.27
2022-12-31T04:40:05.840Z,12.95
2022-12-31T04:42:34.315Z,14.13
2022-12-31T04:45:01.184Z,12.70
2022-12-31T04:47:28.093Z,12.73
2022-12-31T04:49:54.923Z,11.88
2022-12-31T04:52:22.477Z,12.20
2022-12-31T04:54:49.475Z,11.60
2022-12-31T04:57:16.431Z,11.52
2022-12-31T04:59:43.459Z,13.95
2022-12-31T05:02:10.531Z,10.98
2022-12-31T05:04:37.488Z,10.88
2022-12-31T05:07:04.333Z,11.32
2022-12-31T05:09:31.283Z,13.63
2022-12-31T05:11:58.270Z,12.80
2022-12-31T05:14:25.802Z,13.18
2022-12-31T05:16:53.654Z,13.40
2022-12-31T05:19:20.656Z,15.18
2022-12-31T05:22:07.471Z,14.85
2022-12-31T05:24:34.314Z,14.48
2022-12-31T05:27:01.224Z,14.50
2022-12-31T05:29:28.038Z,15.38
2022-12-31T05:31:55.012Z,16.25
2022-12-31T05:34:21.816Z,22.38
2022-12-31T05:36:48.623Z,26.85
2022-12-31T05:39:15.465Z,21.90
2022-12-31T05:41:42.312Z,18.45
2022-12-31T05:44:11.072Z,17.70
2022-12-31T05:46:37.927Z,18.08
2022-12-31T05:49:05.072Z,16.92
2022-12-31T05:51:31.933Z,13.68
2022-12-31T05:53:58.807Z,13.73
2022-12-31T05:56:25.705Z,12.10
2022-12-31T05:58:52.522Z,12.25
2022-12-31T06:01:19.371Z,12.40
2022-12-31T06:03:46.795Z,11.57
2022-12-31T06:06:14.022Z,23.27
2022-12-31T06:08:40.908Z,24.88
2022-12-31T06:11:08.099Z,16.52
2022-12-31T06:13:34.887Z,11.77
2022-12-31T06:16:09.739Z,11.75
2022-12-31T06:18:37.509Z,12.20
2022-12-31T06:21:04.658Z,10.98
2022-12-31T06:23:31.586Z,11.50
2022-12-31T06:26:05.479Z,12.40
2022-12-31T06:28:32.745Z,12.32
2022-12-31T06:31:00.898Z,10.98
2022-12-31T06:33:27.977Z,11.27
2022-12-31T06:36:05.871Z,10.27
2022-12-31T06:38:34.391Z,10.50
2022-12-31T06:41:05.343Z,11.85
2022-12-31T06:43:32.413Z,10.57
2022-12-31T06:46:07.746Z,11.93
2022-12-31T06:48:34.938Z,11.77
2022-12-31T06:51:10.613Z,10.98
2022-12-31T06:53:40.466Z,12.23
2022-12-31T06:56:08.620Z,13.68
2022-12-31T06:58:36.027Z,14.32
2022-12-31T07:01:25.758Z,13.95
2022-12-31T07:04:38.480Z,15.63
2022-12-31T07:07:26.441Z,17.33
2022-12-31T07:10:00.207Z,14.85
2022-12-31T07:12:51.754Z,18.02
2022-12-31T07:15:48.058Z,14.88
2022-12-31T07:18:42.055Z,17.30
2022-12-31T07:21:16.073Z,14.73
2022-12-31T07:23:43.467Z,16.90
2022-12-31T07:26:30.421Z,19.98
2022-12-31T07:29:18.569Z,25.48
2022-12-31T07:32:02.367Z,11.15
2022-12-31T07:34:55.351Z,11.98
2022-12-31T07:37:27.983Z,26.02
2022-12-31T07:39:57.393Z,27.65
2022-12-31T07:42:52.456Z,24.48
2022-12-31T07:45:19.249Z,23.33
2022-12-31T07:47:46.401Z,20.08
2022-12-31T07:50:18.420Z,19.48
2022-12-31T07:52:46.610Z,20.27
2022-12-31T07:55:13.441Z,19.17
2022-12-31T07:58:15.476Z,16.63
2022-12-31T08:00:42.577Z,14.98
2022-12-31T08:03:15.495Z,14.25
2022-12-31T08:06:11.077Z,15.35
2022-12-31T08:08:51.493Z,13.48
2022-12-31T08:11:47.335Z,15.23
2022-12-31T08:14:15.459Z,15.30
2022-12-31T08:16:42.758Z,14.63
2022-12-31T08:19:25.700Z,14.95
2022-12-31T08:22:06.720Z,14.65
2022-12-31T08:24:58.802Z,16.17
2022-12-31T08:28:02.959Z,14.98
2022-12-31T08:30:52.343Z,15.15
2022-12-31T08:33:37.072Z,14.75
2022-12-31T08:36:39.078Z,13.95
2022-12-31T08:39:24.138Z,14.02
2022-12-31T08:41:55.138Z,14.30
2022-12-31T08:44:44.218Z,13.15
2022-12-31T08:47:16.971Z,13.43
2022-12-31T08:49:44.059Z,13.50
2022-12-31T08:52:16.341Z,14.02
2022-12-31T08:54:43.531Z,15.23
2022-12-31T08:57:28.770Z,14.23
2022-12-31T09:00:11.975Z,13.23
2022-12-31T09:03:08.069Z,12.63
2022-12-31T09:05:58.875Z,13.65
2022-12-31T09:08:53.009Z,13.48
2022-12-31T09:11:32.839Z,13.60
2022-12-31T09:14:17.634Z,13.23
2022-12-31T09:16:52.514Z,13.10
2022-12-31T09:19:19.635Z,14.73
2022-12-31T09:21:46.804Z,14.70
2022-12-31T09:24:15.569Z,13.68
2022-12-31T09:26:58.141Z,15.63
2022-12-31T09:29:30.821Z,14.60
2022-12-31T09:32:36.324Z,14.75
2022-12-31T09:35:15.716Z,14.27
2022-12-31T09:37:51.006Z,14.85
2022-12-31T09:40:42.845Z,14.48
2022-12-31T09:43:42.696Z,13.82
2022-12-31T09:46:27.338Z,13.32
2022-12-31T09:49:21.898Z,13.52
2022-12-31T09:52:00.242Z,13.68
2022-12-31T09:54:30.154Z,12.60
2022-12-31T09:57:04.684Z,13.63
2022-12-31T09:59:44.140Z,13.85
2022-12-31T10:02:33.057Z,13.15
2022-12-31T10:05:25.636Z,13.40
2022-12-31T10:08:12.839Z,14.13
2022-12-31T10:10:53.752Z,14.35
2022-12-31T10:13:41.025Z,13.85
2022-12-31T10:16:18.819Z,13.95
2022-12-31T10:19:13.360Z,14.60
2022-12-31T10:22:14.451Z,13.23
2022-12-31T10:24:44.186Z,14.00
2022-12-31T10:27:32.458Z,13.95
2022-12-31T10:30:17.679Z,13.65
2022-12-31T10:32:44.669Z,13.70
2022-12-31T10:35:21.119Z,14.00
2022-12-31T10:38:04.538Z,14.27
2022-12-31T10:40:58.258Z,15.77
2022-12-31T10:43:50.489Z,14.35
2022-12-31T10:46:56.773Z,15.75
2022-12-31T10:49:54.564Z,17.13
2022-12-31T10:52:27.110Z,16.55
2022-12-31T10:55:13.209Z,17.02
2022-12-31T10:57:51.662Z,17.10
2022-12-31T11:00:21.045Z,17.98
2022-12-31T11:03:02.077Z,18.05
2022-12-31T11:06:06.023Z,17.48
2022-12-31T11:09:19.342Z,18.98
2022-12-31T11:12:10.799Z,18.42
2022-12-31T11:15:13.076Z,17.58
2022-12-31T11:18:13.896Z,17.63
2022-12-31T11:20:58.108Z,17.80
2022-12-31T11:24:13.281Z,18.80
2022-12-31T11:27:01.612Z,17.65
2022-12-31T11:29:49.244Z,17.13
2022-12-31T11:32:53.786Z,18.25
2022-12-31T11:35:31.497Z,17.15
2022-12-31T11:38:49.274Z,16.60
2022-12-31T11:41:39.761Z,16.08
2022-12-31T11:44:24.908Z,15.85
2022-12-31T11:46:54.709Z,17.25
2022-12-31T11:49:52.253Z,18.40
2022-12-31T11:52:43.662Z,15.48
2022-12-31T11:55:21.353Z,16.48
2022-12-31T11:57:52.378Z,16.88
2022-12-31T12:02:54.988Z,17.08
2022-12-31T12:05:26.278Z,19.17
2022-12-31T12:07:54.368Z,16.13
2022-12-31T12:10:44.714Z,17.13
2022-12-31T12:13:26.841Z,17.38
2022-12-31T12:15:59.577Z,16.13
2022-12-31T12:18:33.746Z,15.57
2022-12-31T12:21:10.788Z,16.08
2022-12-31T12:23:38.943Z,14.90
2022-12-31T12:26:07.399Z,15.02
2022-12-31T12:28:46.048Z,15.25
2022-12-31T12:31:22.533Z,14.68
2022-12-31T12:33:52.173Z,15.48
2022-12-31T12:36:21.002Z,15.23
2022-12-31T12:38:48.288Z,15.02
2022-12-31T12:41:25.456Z,15.90
2022-12-31T12:44:14.801Z,14.73
2022-12-31T12:46:48.692Z,13.57
2022-12-31T12:49:40.491Z,14.93
2022-12-31T12:52:24.119Z,13.57
2022-12-31T12:55:06.173Z,16.83
2022-12-31T12:57:45.519Z,15.57
2022-12-31T13:00:17.612Z,15.38
2022-12-31T13:03:18.441Z,14.75
2022-12-31T13:05:57.276Z,14.10
2022-12-31T13:08:27.187Z,14.00
2022-12-31T13:11:06.391Z,13.93
2022-12-31T13:13:45.378Z,13.75
2022-12-31T13:16:22.920Z,13.43
2022-12-31T13:19:05.042Z,13.93
2022-12-31T13:22:16.520Z,12.73
2022-12-31T13:25:02.563Z,14.25
2022-12-31T13:27:43.924Z,12.75
2022-12-31T13:30:18.428Z,13.13
2022-12-31T13:32:53.180Z,11.02
2022-12-31T13:35:27.198Z,12.27
2022-12-31T13:38:05.627Z,12.90
2022-12-31T13:41:21.359Z,13.80
2022-12-31T13:44:04.833Z,13.00
2022-12-31T13:46:42.831Z,12.68
2022-12-31T13:51:52.628Z,13.45
2022-12-31T13:54:51.459Z,15.32
2022-12-31T13:57:48.934Z,14.43
2022-12-31T14:00:21.701Z,13.52
2022-12-31T14:03:24.055Z,14.05
2022-12-31T14:06:32.605Z,13.38
2022-12-31T14:08:59.745Z,14.30
2022-12-31T14:11:53.301Z,14.00
2022-12-31T14:14:31.509Z,14.68
2022-12-31T14:17:04.219Z,15.40
2022-12-31T14:20:04.889Z,15.43
2022-12-31T14:22:56.935Z,17.25
2022-12-31T14:25:27.199Z,18.13
2022-12-31T14:27:57.075Z,17.83
2022-12-31T14:30:31.017Z,18.75
2022-12-31T14:33:33.254Z,19.55
2022-12-31T14:36:10.363Z,24.23
2022-12-31T14:38:56.404Z,19.48
2022-12-31T14:41:35.011Z,22.40
2022-12-31T14:44:32.943Z,33.95
2022-12-31T14:47:13.713Z,37.25
2022-12-31T14:49:49.973Z,38.72
2022-12-31T14:52:26.678Z,35.17
2022-12-31T14:55:03.959Z,29.45
2022-12-31T14:58:01.729Z,28.67
2022-12-31T15:00:40.197Z,28.58
2022-12-31T15:03:24.416Z,31.10
2022-12-31T15:06:06.613Z,24.50
2022-12-31T15:08:49.373Z,24.90
2022-12-31T15:11:22.931Z,26.75
2022-12-31T15:13:56.185Z,26.88
2022-12-31T15:16:44.845Z,27.80
2022-12-31T15:19:43.530Z,28.05
2022-12-31T15:22:48.467Z,35.15
2022-12-31T15:25:38.418Z,31.65
2022-12-31T15:28:23.755Z,34.78
2022-12-31T15:30:51.700Z,33.35
2022-12-31T15:33:29.684Z,34.97
2022-12-31T15:35:57.857Z,33.30
2022-12-31T15:38:32.749Z,37.30
2022-12-31T15:41:00.570Z,38.75
2022-12-31T15:43:50.870Z,54.55
2022-12-31T15:46:25.728Z,110.10
2022-12-31T15:49:10.349Z,111.28
2022-12-31T15:51:49.404Z,68.78
2022-12-31T15:54:47.915Z,63.58
2022-12-31T15:57:31.498Z,67.03
2022-12-31T16:00:00.216Z,72.72
2022-12-31T16:02:29.075Z,75.47
2022-12-31T16:04:56.341Z,71.50
2022-12-31T16:07:26.482Z,52.08
2022-12-31T16:09:57.269Z,49.65
2022-12-31T16:12:32.713Z,44.17
2022-12-31T16:15:02.167Z,51.85
2022-12-31T16:17:36.975Z,46.13
2022-12-31T16:20:23.395Z,49.75
2022-12-31T16:22:53.493Z,50.22
2022-12-31T16:25:36.561Z,55.25
2022-12-31T16:28:03.981Z,53.28
2022-12-31T16:30:35.817Z,56.38
2022-12-31T16:33:05.625Z,56.53
2022-12-31T16:35:35.072Z,54.45
2022-12-31T16:38:10.742Z,56.80
2022-12-31T16:40:38.659Z,60.20
2022-12-31T16:43:29.697Z,75.38
2022-12-31T16:45:59.223Z,69.70
2022-12-31T16:48:26.745Z,76.85
2022-12-31T16:50:55.946Z,80.90
2022-12-31T16:53:26.265Z,70.57
2022-12-31T16:56:01.814Z,60.60
2022-12-31T16:58:33.585Z,31.50
2022-12-31T17:01:16.193Z,36.45
2022-12-31T17:03:46.871Z,43.80
2022-12-31T17:06:19.053Z,26.08
2022-12-31T17:08:49.583Z,68.22
2022-12-31T17:11:24.025Z,45.33
2022-12-31T17:14:05.893Z,48.67
2022-12-31T17:16:35.584Z,50.42
2022-12-31T17:19:03.487Z,52.22
2022-12-31T17:21:32.543Z,43.75
2022-12-31T17:24:06.027Z,38.38
2022-12-31T17:26:38.408Z,50.95
2022-12-31T17:29:06.100Z,64.95
2022-12-31T17:31:38.585Z,68.53
2022-12-31T17:34:14.457Z,71.82
2022-12-31T17:36:54.637Z,91.28
2022-12-31T17:39:23.440Z,88.47
2022-12-31T17:41:52.792Z,84.13
2022-12-31T17:44:29.416Z,67.97
2022-12-31T17:46:56.585Z,61.35
2022-12-31T17:49:29.652Z,48.67
2022-12-31T17:51:56.561Z,55.42
2022-12-31T17:54:23.623Z,59.50
2022-12-31T17:56:51.823Z,59.17
2022-12-31T17:59:22.735Z,54.50
2022-12-31T18:01:50.136Z,49.35
2022-12-31T18:04:19.252Z,43.97
2022-12-31T18:06:46.124Z,41.33
2022-12-31T18:09:13.025Z,37.33
2022-12-31T18:11:40.917Z,34.95
2022-12-31T18:14:07.926Z,33.35
2022-12-31T18:16:34.923Z,30.23
2022-12-31T18:19:02.048Z,31.40
2022-12-31T18:21:34.631Z,28.00
2022-12-31T18:26:32.753Z,27.58
2022-12-31T18:29:10.908Z,31.27
2022-12-31T18:31:37.843Z,31.35
2022-12-31T18:34:04.763Z,31.83
2022-12-31T18:36:31.550Z,30.35
2022-12-31T18:38:58.367Z,30.08
2022-12-31T18:41:33.236Z,33.42
2022-12-31T18:44:00.068Z,33.95
2022-12-31T18:46:27.836Z,37.00
2022-12-31T18:48:54.700Z,36.55
2022-12-31T18:51:31.405Z,39.05
2022-12-31T18:54:01.149Z,37.25
2022-12-31T18:56:28.501Z,36.33
2022-12-31T18:58:55.379Z,38.53
2022-12-31T19:01:32.932Z,35.03
2022-12-31T19:04:27.024Z,33.20
2022-12-31T19:06:55.420Z,41.25
2022-12-31T19:12:13.651Z,61.10
2022-12-31T19:14:40.576Z,74.65
2022-12-31T19:19:34.908Z,36.10
2022-12-31T19:22:02.875Z,39.28
2022-12-31T19:24:30.245Z,40.08
2022-12-31T19:26:57.235Z,43.03
2022-12-31T19:29:26.426Z,46.85
2022-12-31T19:31:53.986Z,43.42
2022-12-31T19:34:21.315Z,40.72
2022-12-31T19:36:48.120Z,36.10
2022-12-31T19:39:18.278Z,34.00
2022-12-31T19:41:46.142Z,35.25
2022-12-31T19:44:17.897Z,37.92
2022-12-31T19:46:46.377Z,38.25
2022-12-31T19:49:14.389Z,30.35
2022-12-31T19:51:41.933Z,26.88
2022-12-31T19:54:09.047Z,25.10
2022-12-31T19:56:36.082Z,25.33
2022-12-31T19:59:08.360Z,24.73
2022-12-31T20:01:35.511Z,29.30
2022-12-31T20:04:02.446Z,26.08
2022-12-31T20:06:29.353Z,26.30
2022-12-31T20:08:56.259Z,25.48
2022-12-31T20:11:24.861Z,33.47
2022-12-31T20:13:53.701Z,30.20
2022-12-31T20:16:23.507Z,28.67
2022-12-31T20:18:50.861Z,34.40
2022-12-31T20:21:20.982Z,35.72
2022-12-31T20:23:49.326Z,35.33
2022-12-31T20:26:16.943Z,34.70
2022-12-31T20:28:43.894Z,35.78
2022-12-31T20:31:13.516Z,34.78
2022-12-31T20:33:41.000Z,33.30
2022-12-31T20:36:10.794Z,34.60
2022-12-31T20:38:38.137Z,37.25
2022-12-31T20:41:07.488Z,45.78
2022-12-31T20:43:35.198Z,49.58
2022-12-31T20:46:15.699Z,48.08
2022-12-31T20:48:44.600Z,48.80
2022-12-31T20:51:13.024Z,48.97
2022-12-31T20:53:40.229Z,48.60
2022-12-31T20:56:08.654Z,47.55
2022-12-31T20:58:35.959Z,52.97
2022-12-31T21:01:06.522Z,71.75
2022-12-31T21:06:22.992Z,54.05
2022-12-31T21:08:49.819Z,56.88
2022-12-31T21:11:35.367Z,52.17
2022-12-31T21:14:02.760Z,46.28
2022-12-31T21:16:29.933Z,48.55
2022-12-31T21:18:56.726Z,51.15
2022-12-31T21:21:24.089Z,48.92
2022-12-31T21:23:51.013Z,48.50
2022-12-31T21:26:17.936Z,51.90
2022-12-31T21:28:45.514Z,52.33
2022-12-31T21:31:14.322Z,53.25
2022-12-31T21:33:45.855Z,50.30
2022-12-31T21:36:13.696Z,50.05
2022-12-31T21:38:40.825Z,51.78
2022-12-31T21:41:09.384Z,40.38
2022-12-31T21:43:36.245Z,24.55
2022-12-31T21:46:05.169Z,29.33
2022-12-31T21:48:32.139Z,33.50
2022-12-31T21:51:12.913Z,21.48
2022-12-31T21:53:40.355Z,23.08
2022-12-31T21:56:08.665Z,23.85
2022-12-31T21:58:37.240Z,21.10
2022-12-31T22:01:23.196Z,21.77
2022-12-31T22:03:50.545Z,25.20
2022-12-31T22:06:22.746Z,36.65
2022-12-31T22:08:51.979Z,28.63
2022-12-31T22:11:21.077Z,28.77
2022-12-31T22:13:48.498Z,21.77
2022-12-31T22:16:17.193Z,20.80
2022-12-31T22:18:44.482Z,19.45
2022-12-31T22:21:29.546Z,18.38
2022-12-31T22:23:58.780Z,18.45
2022-12-31T22:26:28.569Z,17.83
2022-12-31T22:28:59.776Z,16.90
2022-12-31T22:31:30.139Z,14.45
2022-12-31T22:33:58.545Z,24.30
2022-12-31T22:36:26.591Z,23.80
2022-12-31T22:38:58.326Z,22.58
2022-12-31T22:41:26.782Z,26.23
2022-12-31T22:44:02.594Z,21.70
2022-12-31T22:46:29.907Z,25.80
2022-12-31T22:48:58.611Z,20.23
2022-12-31T22:51:55.024Z,22.05
2022-12-31T22:54:13.942Z,20.00
2022-12-31T22:56:41.325Z,19.73
2022-12-31T22:59:08.327Z,21.58
2022-12-31T23:01:35.252Z,24.33
2022-12-31T23:04:02.306Z,31.48
2022-12-31T23:06:29.447Z,25.40
2022-12-31T23:09:14.799Z,35.67
2022-12-31T23:11:43.359Z,38.15
2022-12-31T23:14:34.795Z,39.40
2022-12-31T23:17:30.016Z,22.13
2022-12-31T23:20:18.961Z,18.45
2022-12-31T23:23:06.036Z,14.00
2022-12-31T23:25:38.399Z,13.95
2022-12-31T23:30:33.123Z,12.70
2022-12-31T23:33:00.110Z,13.35
2022-12-31T23:35:26.971Z,14.77
2022-12-31T23:37:53.843Z,13.73
2022-12-31T23:40:21.777Z,14.73
2022-12-31T23:42:50.285Z,15.02
2022-12-31T23:45:17.314Z,18.75
2022-12-31T23:47:44.110Z,15.63
2022-12-31T23:50:10.929Z,15.98
2022-12-31T23:52:37.784Z,18.20
2022-12-31T23:55:04.994Z,18.60
2022-12-31T23:57:32.101Z,16.50
2022-12-31T23:59:59.014Z,16.17
